^^
Meteo Knjazevac Station Historical Data
Daily Summary for February 2, 2021 Units:  Both    English   Metric
Daily Weekly Monthly Yearly Custom
  High: Low: Average:
Temperature: 48.4 °F /  9.1 °C 26.1 °F /  -3.3 °C 33.8 °F /  1 °C
Dew Point: 42 °F /  5.6 °C 25.1 °F /  -3.8 °C 31.9 °F /  -0.1 °C
Humidity: 99% 77% 93%
Wind Speed: 7mph /  11.3km/h - 1.8mph /  2.9km/h
Wind Gust: 13mph /  20.9km/h - -
Wind- - SSE
Pressure: 30.23 in /  1023.6 hPa 30.15 in /  1020.9 hPa -
Precipitation: 0.00 in /  0 mm    
Historical Graphs
 
 
Tabular Data for February 2, 2021
Time Temperature Dew Point Pressure Wind Wind Speed Wind Gust Humidity Rainfall Rate (Hourly) solar Conditions
00:00 31.3 °F /  -0.4 °C 29.8 °F /  -1.2 °C 30.15in /  1020.9hPa West 2mph /  3.2km/h 6mph /  9.7km/h 94% 0.00in /  0mm 0 W/m2
00:10 31.1 °F /  -0.5 °C 29.8 °F /  -1.2 °C 30.15in /  1020.9hPa West 2mph /  3.2km/h 5mph /  8km/h 95% 0.00in /  0mm 0 W/m2
00:20 31.1 °F /  -0.5 °C 29.8 °F /  -1.2 °C 30.15in /  1020.9hPa WNW 3mph /  4.8km/h 6mph /  9.7km/h 95% 0.00in /  0mm 0 W/m2
00:30 31.5 °F /  -0.3 °C 30.2 °F /  -1 °C 30.15in /  1020.9hPa WNW 3mph /  4.8km/h 5mph /  8km/h 95% 0.00in /  0mm 0 W/m2
00:40 31.5 °F /  -0.3 °C 30.2 °F /  -1 °C 30.15in /  1020.9hPa WNW 2mph /  3.2km/h 5mph /  8km/h 95% 0.00in /  0mm 0 W/m2
00:50 31.1 °F /  -0.5 °C 29.8 °F /  -1.2 °C 30.16in /  1021.2hPa WNW 3mph /  4.8km/h 5mph /  8km/h 95% 0.00in /  0mm 0 W/m2
01:00 31.1 °F /  -0.5 °C 29.8 °F /  -1.2 °C 30.16in /  1021.2hPa West 3mph /  4.8km/h 5mph /  8km/h 95% 0.00in /  0mm 0 W/m2
01:10 31.1 °F /  -0.5 °C 29.8 °F /  -1.2 °C 30.16in /  1021.2hPa WNW 1mph /  1.6km/h 5mph /  8km/h 95% 0.00in /  0mm 0 W/m2
01:20 30.7 °F /  -0.7 °C 29.5 °F /  -1.4 °C 30.16in /  1021.2hPa West 2mph /  3.2km/h 4mph /  6.4km/h 95% 0.00in /  0mm 0 W/m2
01:30 30.4 °F /  -0.9 °C 29.1 °F /  -1.6 °C 30.17in /  1021.6hPa WNW 2mph /  3.2km/h 4mph /  6.4km/h 95% 0.00in /  0mm 0 W/m2
01:40 30.7 °F /  -0.7 °C 29.7 °F /  -1.3 °C 30.17in /  1021.6hPa Calm   4mph /  6.4km/h 96% 0.00in /  0mm 0 W/m2
01:50 30.7 °F /  -0.7 °C 29.7 °F /  -1.3 °C 30.17in /  1021.6hPa WNW 2mph /  3.2km/h 4mph /  6.4km/h 96% 0.00in /  0mm 0 W/m2
02:00 30.6 °F /  -0.8 °C 29.3 °F /  -1.5 °C 30.17in /  1021.6hPa Calm   3mph /  4.8km/h 95% 0.00in /  0mm 0 W/m2
02:10 30.4 °F /  -0.9 °C 29.1 °F /  -1.6 °C 30.17in /  1021.6hPa Calm   3mph /  4.8km/h 95% 0.00in /  0mm 0 W/m2
02:20 30 °F /  -1.1 °C 28.8 °F /  -1.8 °C 30.17in /  1021.6hPa WNW 2mph /  3.2km/h 4mph /  6.4km/h 95% 0.00in /  0mm 0 W/m2
02:30 30 °F /  -1.1 °C 28.8 °F /  -1.8 °C 30.17in /  1021.6hPa NNW 1mph /  1.6km/h 3mph /  4.8km/h 95% 0.00in /  0mm 0 W/m2
02:40 29.8 °F /  -1.2 °C 28.6 °F /  -1.9 °C 30.17in /  1021.6hPa West 1mph /  1.6km/h 3mph /  4.8km/h 95% 0.00in /  0mm 0 W/m2
02:50 29.7 °F /  -1.3 °C 28.4 °F /  -2 °C 30.17in /  1021.6hPa WNW 1mph /  1.6km/h 2mph /  3.2km/h 95% 0.00in /  0mm 0 W/m2
03:00 29.3 °F /  -1.5 °C 28 °F /  -2.2 °C 30.17in /  1021.6hPa WNW 1mph /  1.6km/h 3mph /  4.8km/h 95% 0.00in /  0mm 0 W/m2
03:10 29.1 °F /  -1.6 °C 28.1 °F /  -2.2 °C 30.18in /  1021.9hPa NW 5mph /  8km/h 7mph /  11.3km/h 96% 0.00in /  0mm 0 W/m2
03:20 29.8 °F /  -1.2 °C 28.8 °F /  -1.8 °C 30.18in /  1021.9hPa Calm   5mph /  8km/h 96% 0.00in /  0mm 0 W/m2
03:30 29.5 °F /  -1.4 °C 28.5 °F /  -1.9 °C 30.18in /  1021.9hPa Calm   4mph /  6.4km/h 96% 0.00in /  0mm 0 W/m2
03:40 29.1 °F /  -1.6 °C 27.9 °F /  -2.3 °C 30.18in /  1021.9hPa NW 2mph /  3.2km/h 2mph /  3.2km/h 95% 0.00in /  0mm 0 W/m2
03:50 28.9 °F /  -1.7 °C 27.9 °F /  -2.3 °C 30.18in /  1021.9hPa North 1mph /  1.6km/h 3mph /  4.8km/h 96% 0.00in /  0mm 0 W/m2
04:00 28.8 °F /  -1.8 °C 27.8 °F /  -2.3 °C 30.18in /  1021.9hPa Calm   2mph /  3.2km/h 96% 0.00in /  0mm 0 W/m2
04:10 28.6 °F /  -1.9 °C 27.6 °F /  -2.4 °C 30.18in /  1021.9hPa NW 2mph /  3.2km/h 2mph /  3.2km/h 96% 0.00in /  0mm 0 W/m2
04:20 28.4 °F /  -2 °C 27.1 °F /  -2.7 °C 30.18in /  1021.9hPa WNW 2mph /  3.2km/h 3mph /  4.8km/h 95% 0.00in /  0mm 0 W/m2
04:30 28.2 °F /  -2.1 °C 27.2 °F /  -2.7 °C 30.18in /  1021.9hPa Calm   3mph /  4.8km/h 96% 0.00in /  0mm 0 W/m2
04:40 28 °F /  -2.2 °C 27 °F /  -2.8 °C 30.18in /  1021.9hPa NW 2mph /  3.2km/h 3mph /  4.8km/h 96% 0.00in /  0mm 0 W/m2
04:50 27.9 °F /  -2.3 °C 26.9 °F /  -2.8 °C 30.18in /  1021.9hPa NW 1mph /  1.6km/h 3mph /  4.8km/h 96% 0.00in /  0mm 0 W/m2
05:00 27.7 °F /  -2.4 °C 26.7 °F /  -2.9 °C 30.18in /  1021.9hPa Calm   2mph /  3.2km/h 96% 0.00in /  0mm 0 W/m2
05:10 27.5 °F /  -2.5 °C 26.5 °F /  -3.1 °C 30.18in /  1021.9hPa West 1mph /  1.6km/h 2mph /  3.2km/h 96% 0.00in /  0mm 0 W/m2
05:20 27.5 °F /  -2.5 °C 26.5 °F /  -3.1 °C 30.18in /  1021.9hPa WNW 1mph /  1.6km/h 3mph /  4.8km/h 96% 0.00in /  0mm 0 W/m2
05:30 27.3 °F /  -2.6 °C 26.3 °F /  -3.2 °C 30.19in /  1022.2hPa WNW 1mph /  1.6km/h 3mph /  4.8km/h 96% 0.00in /  0mm 0 W/m2
05:40 27.3 °F /  -2.6 °C 26.3 °F /  -3.2 °C 30.19in /  1022.2hPa Calm   2mph /  3.2km/h 96% 0.00in /  0mm 0 W/m2
05:50 27.1 °F /  -2.7 °C 26.2 °F /  -3.2 °C 30.19in /  1022.2hPa WNW 1mph /  1.6km/h 2mph /  3.2km/h 96% 0.00in /  0mm 0 W/m2
06:00 26.8 °F /  -2.9 °C 25.8 °F /  -3.4 °C 30.19in /  1022.2hPa NW 1mph /  1.6km/h 2mph /  3.2km/h 96% 0.00in /  0mm 0 W/m2
06:10 26.8 °F /  -2.9 °C 25.8 °F /  -3.4 °C 30.19in /  1022.2hPa Calm   2mph /  3.2km/h 96% 0.00in /  0mm 0 W/m2
06:20 26.6 °F /  -3 °C 25.6 °F /  -3.6 °C 30.20in /  1022.6hPa Calm   2mph /  3.2km/h 96% 0.00in /  0mm 0 W/m2
06:30 26.4 °F /  -3.1 °C 25.4 °F /  -3.7 °C 30.20in /  1022.6hPa Calm   2mph /  3.2km/h 96% 0.00in /  0mm 0 W/m2
06:40 26.6 °F /  -3 °C 25.6 °F /  -3.6 °C 30.20in /  1022.6hPa North 2mph /  3.2km/h 5mph /  8km/h 96% 0.00in /  0mm 0 W/m2
06:50 26.4 °F /  -3.1 °C 25.9 °F /  -3.4 °C 30.20in /  1022.6hPa Calm   4mph /  6.4km/h 98% 0.00in /  0mm 0 W/m2
07:00 26.2 °F /  -3.2 °C 25.3 °F /  -3.7 °C 30.20in /  1022.6hPa NNE 1mph /  1.6km/h 3mph /  4.8km/h 96% 0.00in /  0mm 0 W/m2
07:10 26.2 °F /  -3.2 °C 25.2 °F /  -3.8 °C 30.21in /  1022.9hPa NW 1mph /  1.6km/h 3mph /  4.8km/h 96% 0.00in /  0mm 7 W/m2
07:20 26.1 °F /  -3.3 °C 25.1 °F /  -3.8 °C 30.21in /  1022.9hPa Calm   2mph /  3.2km/h 96% 0.00in /  0mm 5 W/m2
07:30 26.1 °F /  -3.3 °C 25.1 °F /  -3.8 °C 30.21in /  1022.9hPa Calm   2mph /  3.2km/h 96% 0.00in /  0mm 19 W/m2
07:40 26.2 °F /  -3.2 °C 25.7 °F /  -3.5 °C 30.21in /  1022.9hPa Calm   3mph /  4.8km/h 98% 0.00in /  0mm 35 W/m2
07:50 26.2 °F /  -3.2 °C 25.7 °F /  -3.5 °C 30.22in /  1023.2hPa Calm   2mph /  3.2km/h 98% 0.00in /  0mm 49 W/m2
08:00 26.1 °F /  -3.3 °C 25.6 °F /  -3.6 °C 30.22in /  1023.2hPa Calm   2mph /  3.2km/h 98% 0.00in /  0mm 68 W/m2
08:10 26.4 °F /  -3.1 °C 25.9 °F /  -3.4 °C 30.22in /  1023.2hPa Calm   4mph /  6.4km/h 98% 0.00in /  0mm 83 W/m2
08:20 27.1 °F /  -2.7 °C 26.7 °F /  -2.9 °C 30.22in /  1023.2hPa Calm   3mph /  4.8km/h 98% 0.00in /  0mm 107 W/m2
08:30 27.3 °F /  -2.6 °C 26.8 °F /  -2.9 °C 30.22in /  1023.2hPa Calm   2mph /  3.2km/h 98% 0.00in /  0mm 127 W/m2
08:40 28.2 °F /  -2.1 °C 27.7 °F /  -2.4 °C 30.22in /  1023.2hPa Calm   2mph /  3.2km/h 98% 0.00in /  0mm 143 W/m2
08:50 29 °F /  -1.7 °C 28.5 °F /  -1.9 °C 30.23in /  1023.6hPa Calm   2mph /  3.2km/h 98% 0.00in /  0mm 163 W/m2
09:00 30 °F /  -1.1 °C 29.5 °F /  -1.4 °C 30.23in /  1023.6hPa North 1mph /  1.6km/h 5mph /  8km/h 98% 0.00in /  0mm 183 W/m2
09:10 30.7 °F /  -0.7 °C 30.2 °F /  -1 °C 30.23in /  1023.6hPa ENE 2mph /  3.2km/h 5mph /  8km/h 98% 0.00in /  0mm 200 W/m2
09:20 31.1 °F /  -0.5 °C 30.6 °F /  -0.8 °C 30.23in /  1023.6hPa Calm   5mph /  8km/h 98% 0.00in /  0mm 217 W/m2
09:30 31.8 °F /  -0.1 °C 30.8 °F /  -0.7 °C 30.23in /  1023.6hPa South 1mph /  1.6km/h 5mph /  8km/h 96% 0.00in /  0mm 233 W/m2
09:40 32.9 °F /  0.5 °C 31.9 °F /  -0.1 °C 30.23in /  1023.6hPa NNE 3mph /  4.8km/h 8mph /  12.9km/h 96% 0.00in /  0mm 248 W/m2
09:50 33.6 °F /  0.9 °C 32.3 °F /  0.2 °C 30.23in /  1023.6hPa North 3mph /  4.8km/h 8mph /  12.9km/h 95% 0.00in /  0mm 262 W/m2
10:00 33.8 °F /  1 °C 32.8 °F /  0.4 °C 30.23in /  1023.6hPa NNE 2mph /  3.2km/h 8mph /  12.9km/h 96% 0.00in /  0mm 179 W/m2
10:10 33.8 °F /  1 °C 32.8 °F /  0.4 °C 30.22in /  1023.2hPa NW 1mph /  1.6km/h 6mph /  9.7km/h 96% 0.00in /  0mm 286 W/m2
10:20 34.5 °F /  1.4 °C 33.5 °F /  0.8 °C 30.22in /  1023.2hPa NE 5mph /  8km/h 8mph /  12.9km/h 96% 0.00in /  0mm 297 W/m2
10:30 34.9 °F /  1.6 °C 33.9 °F /  1.1 °C 30.22in /  1023.2hPa NNE 6mph /  9.7km/h 8mph /  12.9km/h 96% 0.00in /  0mm 160 W/m2
10:40 34.9 °F /  1.6 °C 33.9 °F /  1.1 °C 30.22in /  1023.2hPa North 1mph /  1.6km/h 8mph /  12.9km/h 96% 0.00in /  0mm 172 W/m2
10:50 35.1 °F /  1.7 °C 34.6 °F /  1.4 °C 30.22in /  1023.2hPa North 2mph /  3.2km/h 7mph /  11.3km/h 98% 0.00in /  0mm 245 W/m2
11:00 35.4 °F /  1.9 °C 34.9 °F /  1.6 °C 30.22in /  1023.2hPa NNE 5mph /  8km/h 8mph /  12.9km/h 98% 0.00in /  0mm 324 W/m2
11:10 36.7 °F /  2.6 °C 36.2 °F /  2.3 °C 30.21in /  1022.9hPa North 3mph /  4.8km/h 7mph /  11.3km/h 98% 0.00in /  0mm 329 W/m2
11:20 38.2 °F /  3.4 °C 37.1 °F /  2.8 °C 30.21in /  1022.9hPa NNE 3mph /  4.8km/h 8mph /  12.9km/h 96% 0.00in /  0mm 332 W/m2
11:30 39.2 °F /  4 °C 37.6 °F /  3.1 °C 30.21in /  1022.9hPa WNW 1mph /  1.6km/h 7mph /  11.3km/h 94% 0.00in /  0mm 333 W/m2
11:40 40.7 °F /  4.8 °C 38.8 °F /  3.8 °C 30.20in /  1022.6hPa NNE 1mph /  1.6km/h 7mph /  11.3km/h 93% 0.00in /  0mm 332 W/m2
11:50 41.4 °F /  5.2 °C 39 °F /  3.9 °C 30.19in /  1022.2hPa NNE 3mph /  4.8km/h 8mph /  12.9km/h 91% 0.00in /  0mm 330 W/m2
12:00 42.3 °F /  5.7 °C 39.6 °F /  4.2 °C 30.19in /  1022.2hPa North 5mph /  8km/h 10mph /  16.1km/h 90% 0.00in /  0mm 327 W/m2
12:10 43.2 °F /  6.2 °C 40.1 °F /  4.5 °C 30.19in /  1022.2hPa NE 3mph /  4.8km/h 8mph /  12.9km/h 89% 0.00in /  0mm 323 W/m2
12:20 44.1 °F /  6.7 °C 40.7 °F /  4.8 °C 30.18in /  1021.9hPa North 2mph /  3.2km/h 7mph /  11.3km/h 88% 0.00in /  0mm 317 W/m2
12:30 44.8 °F /  7.1 °C 40.8 °F /  4.9 °C 30.18in /  1021.9hPa NNE 2mph /  3.2km/h 7mph /  11.3km/h 86% 0.00in /  0mm 309 W/m2
12:40 45.5 °F /  7.5 °C 41.3 °F /  5.2 °C 30.17in /  1021.6hPa NNE 1mph /  1.6km/h 7mph /  11.3km/h 85% 0.00in /  0mm 301 W/m2
12:50 46.2 °F /  7.9 °C 41.7 °F /  5.4 °C 30.17in /  1021.6hPa NNE 3mph /  4.8km/h 10mph /  16.1km/h 84% 0.00in /  0mm 291 W/m2
13:00 46.8 °F /  8.2 °C 41.9 °F /  5.5 °C 30.17in /  1021.6hPa NNE 3mph /  4.8km/h 8mph /  12.9km/h 83% 0.00in /  0mm 279 W/m2
13:10 47.1 °F /  8.4 °C 41.6 °F /  5.3 °C 30.17in /  1021.6hPa NNE 5mph /  8km/h 8mph /  12.9km/h 81% 0.00in /  0mm 267 W/m2
13:20 47.5 °F /  8.6 °C 41.9 °F /  5.5 °C 30.17in /  1021.6hPa NNE 3mph /  4.8km/h 8mph /  12.9km/h 81% 0.00in /  0mm 254 W/m2
13:30 47.8 °F /  8.8 °C 41.6 °F /  5.3 °C 30.16in /  1021.2hPa North 3mph /  4.8km/h 9mph /  14.5km/h 79% 0.00in /  0mm 239 W/m2
13:40 48.2 °F /  9 °C 42 °F /  5.6 °C 30.16in /  1021.2hPa North 3mph /  4.8km/h 10mph /  16.1km/h 79% 0.00in /  0mm 224 W/m2
13:50 48.4 °F /  9.1 °C 41.8 °F /  5.4 °C 30.17in /  1021.6hPa North 5mph /  8km/h 8mph /  12.9km/h 78% 0.00in /  0mm 207 W/m2
14:00 48.4 °F /  9.1 °C 41.5 °F /  5.3 °C 30.17in /  1021.6hPa North 5mph /  8km/h 9mph /  14.5km/h 77% 0.00in /  0mm 190 W/m2
14:10 48.2 °F /  9 °C 41.3 °F /  5.2 °C 30.16in /  1021.2hPa NNE 3mph /  4.8km/h 10mph /  16.1km/h 77% 0.00in /  0mm 172 W/m2
14:20 47.8 °F /  8.8 °C 41 °F /  5 °C 30.16in /  1021.2hPa North 5mph /  8km/h 9mph /  14.5km/h 77% 0.00in /  0mm 154 W/m2
14:30 47.1 °F /  8.4 °C 40.6 °F /  4.8 °C 30.17in /  1021.6hPa North 3mph /  4.8km/h 8mph /  12.9km/h 78% 0.00in /  0mm 135 W/m2
14:40 46.4 °F /  8 °C 40.2 °F /  4.6 °C 30.17in /  1021.6hPa North 2mph /  3.2km/h 10mph /  16.1km/h 79% 0.00in /  0mm 116 W/m2
14:50 45.5 °F /  7.5 °C 39.7 °F /  4.3 °C 30.16in /  1021.2hPa NNE 7mph /  11.3km/h 13mph /  20.9km/h 80% 0.00in /  0mm 97 W/m2
15:00 44.6 °F /  7 °C 39.1 °F /  3.9 °C 30.17in /  1021.6hPa North 3mph /  4.8km/h 12mph /  19.3km/h 81% 0.00in /  0mm 78 W/m2
15:10 44 °F /  6.7 °C 39.2 °F /  4 °C 30.17in /  1021.6hPa North 6mph /  9.7km/h 9mph /  14.5km/h 83% 0.00in /  0mm 59 W/m2
15:20 43.3 °F /  6.3 °C 38.5 °F /  3.6 °C 30.17in /  1021.6hPa NNE 6mph /  9.7km/h 10mph /  16.1km/h 83% 0.00in /  0mm 42 W/m2
15:30 42.6 °F /  5.9 °C 38.1 °F /  3.4 °C 30.17in /  1021.6hPa NNE 6mph /  9.7km/h 10mph /  16.1km/h 84% 0.00in /  0mm 25 W/m2
15:40 41.9 °F /  5.5 °C 37.7 °F /  3.2 °C 30.17in /  1021.6hPa NNE 6mph /  9.7km/h 13mph /  20.9km/h 85% 0.00in /  0mm 11 W/m2
15:50 41.4 °F /  5.2 °C 37.2 °F /  2.9 °C 30.17in /  1021.6hPa North 2mph /  3.2km/h 8mph /  12.9km/h 85% 0.00in /  0mm 13 W/m2
16:00 40.8 °F /  4.9 °C 36.9 °F /  2.7 °C 30.17in /  1021.6hPa NNE 6mph /  9.7km/h 8mph /  12.9km/h 86% 0.00in /  0mm 7 W/m2
16:10 40.1 °F /  4.5 °C 36.8 °F /  2.7 °C 30.17in /  1021.6hPa NNE 6mph /  9.7km/h 10mph /  16.1km/h 88% 0.00in /  0mm 0 W/m2
16:20 39.7 °F /  4.3 °C 36.5 °F /  2.5 °C 30.17in /  1021.6hPa North 2mph /  3.2km/h 7mph /  11.3km/h 88% 0.00in /  0mm 0 W/m2
16:30 39.2 °F /  4 °C 36.2 °F /  2.3 °C 30.17in /  1021.6hPa NNE 5mph /  8km/h 8mph /  12.9km/h 89% 0.00in /  0mm 0 W/m2
16:40 38.7 °F /  3.7 °C 35.7 °F /  2.1 °C 30.17in /  1021.6hPa NNE 5mph /  8km/h 9mph /  14.5km/h 89% 0.00in /  0mm 0 W/m2
16:50 38.3 °F /  3.5 °C 35.6 °F /  2 °C 30.17in /  1021.6hPa NNE 6mph /  9.7km/h 9mph /  14.5km/h 90% 0.00in /  0mm 0 W/m2
17:00 38.1 °F /  3.4 °C 35.4 °F /  1.9 °C 30.18in /  1021.9hPa NNE 2mph /  3.2km/h 8mph /  12.9km/h 90% 0.00in /  0mm 0 W/m2
17:10 37.8 °F /  3.2 °C 35.1 °F /  1.7 °C 30.18in /  1021.9hPa NNE 2mph /  3.2km/h 6mph /  9.7km/h 90% 0.00in /  0mm 0 W/m2
17:20 37.4 °F /  3 °C 34.7 °F /  1.5 °C 30.18in /  1021.9hPa North 2mph /  3.2km/h 6mph /  9.7km/h 90% 0.00in /  0mm 0 W/m2
17:30 37.4 °F /  3 °C 35 °F /  1.7 °C 30.18in /  1021.9hPa NNE 2mph /  3.2km/h 6mph /  9.7km/h 91% 0.00in /  0mm 0 W/m2
17:40 37 °F /  2.8 °C 34.7 °F /  1.5 °C 30.18in /  1021.9hPa North 1mph /  1.6km/h 6mph /  9.7km/h 91% 0.00in /  0mm 0 W/m2
17:50 36.5 °F /  2.5 °C 34.1 °F /  1.2 °C 30.18in /  1021.9hPa WSW 1mph /  1.6km/h 3mph /  4.8km/h 91% 0.00in /  0mm 0 W/m2
18:00 35.6 °F /  2 °C 33.2 °F /  0.7 °C 30.18in /  1021.9hPa Calm   3mph /  4.8km/h 91% 0.00in /  0mm 0 W/m2
18:10 35.2 °F /  1.8 °C 32.9 °F /  0.5 °C 30.18in /  1021.9hPa Calm   2mph /  3.2km/h 91% 0.00in /  0mm 0 W/m2
18:20 34.9 °F /  1.6 °C 33.1 °F /  0.6 °C 30.18in /  1021.9hPa Calm   2mph /  3.2km/h 93% 0.00in /  0mm 0 W/m2
18:30 34.5 °F /  1.4 °C 32.7 °F /  0.4 °C 30.18in /  1021.9hPa SSW 1mph /  1.6km/h 3mph /  4.8km/h 93% 0.00in /  0mm 0 W/m2
18:40 34.2 °F /  1.2 °C 32.3 °F /  0.2 °C 30.18in /  1021.9hPa WNW 1mph /  1.6km/h 3mph /  4.8km/h 93% 0.00in /  0mm 0 W/m2
18:50 33.4 °F /  0.8 °C 31.6 °F /  -0.2 °C 30.18in /  1021.9hPa WNW 1mph /  1.6km/h 3mph /  4.8km/h 93% 0.00in /  0mm 0 W/m2
19:00 33 °F /  0.6 °C 31.2 °F /  -0.4 °C 30.18in /  1021.9hPa Calm   2mph /  3.2km/h 93% 0.00in /  0mm 0 W/m2
19:10 32.7 °F /  0.4 °C 31.2 °F /  -0.4 °C 30.18in /  1021.9hPa West 1mph /  1.6km/h 3mph /  4.8km/h 94% 0.00in /  0mm 0 W/m2
19:20 32.7 °F /  0.4 °C 31.4 °F /  -0.3 °C 30.18in /  1021.9hPa Calm   5mph /  8km/h 95% 0.00in /  0mm 0 W/m2
19:30 32.3 °F /  0.2 °C 31 °F /  -0.6 °C 30.18in /  1021.9hPa WNW 2mph /  3.2km/h 4mph /  6.4km/h 95% 0.00in /  0mm 0 W/m2
19:40 31.8 °F /  -0.1 °C 30.6 °F /  -0.8 °C 30.18in /  1021.9hPa North 1mph /  1.6km/h 3mph /  4.8km/h 95% 0.00in /  0mm 0 W/m2
19:50 31.8 °F /  -0.1 °C 30.5 °F /  -0.8 °C 30.18in /  1021.9hPa Calm   3mph /  4.8km/h 95% 0.00in /  0mm 0 W/m2
20:00 31.6 °F /  -0.2 °C 30.4 °F /  -0.9 °C 30.18in /  1021.9hPa Calm   5mph /  8km/h 95% 0.00in /  0mm 0 W/m2
20:10 31.1 °F /  -0.5 °C 29.8 °F /  -1.2 °C 30.18in /  1021.9hPa WSW 2mph /  3.2km/h 4mph /  6.4km/h 95% 0.00in /  0mm 0 W/m2
20:20 30.9 °F /  -0.6 °C 29.9 °F /  -1.2 °C 30.18in /  1021.9hPa WNW 2mph /  3.2km/h 6mph /  9.7km/h 96% 0.00in /  0mm 0 W/m2
20:30 30.8 °F /  -0.7 °C 29.8 °F /  -1.2 °C 30.17in /  1021.6hPa Calm   3mph /  4.8km/h 96% 0.00in /  0mm 0 W/m2
20:40 30.7 °F /  -0.7 °C 29.7 °F /  -1.3 °C 30.17in /  1021.6hPa Calm   5mph /  8km/h 96% 0.00in /  0mm 0 W/m2
20:50 30.6 °F /  -0.8 °C 29.6 °F /  -1.3 °C 30.17in /  1021.6hPa West 2mph /  3.2km/h 3mph /  4.8km/h 96% 0.00in /  0mm 0 W/m2
21:00 30.4 °F /  -0.9 °C 29.4 °F /  -1.4 °C 30.17in /  1021.6hPa Calm   4mph /  6.4km/h 96% 0.00in /  0mm 0 W/m2
21:10 30.3 °F /  -0.9 °C 29.8 °F /  -1.2 °C 30.17in /  1021.6hPa Calm   2mph /  3.2km/h 98% 0.00in /  0mm 0 W/m2
21:20 30 °F /  -1.1 °C 29.5 °F /  -1.4 °C 30.17in /  1021.6hPa WNW 1mph /  1.6km/h 3mph /  4.8km/h 98% 0.00in /  0mm 0 W/m2
21:30 29.8 °F /  -1.2 °C 29.3 °F /  -1.5 °C 30.17in /  1021.6hPa Calm   2mph /  3.2km/h 98% 0.00in /  0mm 0 W/m2
21:40 29.8 °F /  -1.2 °C 29.3 °F /  -1.5 °C 30.17in /  1021.6hPa Calm   2mph /  3.2km/h 98% 0.00in /  0mm 0 W/m2
21:50 29.8 °F /  -1.2 °C 29.3 °F /  -1.5 °C 30.17in /  1021.6hPa West 2mph /  3.2km/h 4mph /  6.4km/h 98% 0.00in /  0mm 0 W/m2
22:00 30 °F /  -1.1 °C 29.5 °F /  -1.4 °C 30.17in /  1021.6hPa Calm   2mph /  3.2km/h 98% 0.00in /  0mm 0 W/m2
22:10 30.2 °F /  -1 °C 29.7 °F /  -1.3 °C 30.17in /  1021.6hPa WNW 1mph /  1.6km/h 2mph /  3.2km/h 98% 0.00in /  0mm 0 W/m2
22:20 30.4 °F /  -0.9 °C 30.1 °F /  -1.1 °C 30.17in /  1021.6hPa West 2mph /  3.2km/h 3mph /  4.8km/h 99% 0.00in /  0mm 0 W/m2
22:30 30.6 °F /  -0.8 °C 30.3 °F /  -0.9 °C 30.17in /  1021.6hPa West 2mph /  3.2km/h 3mph /  4.8km/h 99% 0.00in /  0mm 0 W/m2
22:40 30.6 °F /  -0.8 °C 30.3 °F /  -0.9 °C 30.17in /  1021.6hPa West 2mph /  3.2km/h 4mph /  6.4km/h 99% 0.00in /  0mm 0 W/m2
22:50 30.9 °F /  -0.6 °C 30.6 °F /  -0.8 °C 30.17in /  1021.6hPa WNW 1mph /  1.6km/h 3mph /  4.8km/h 99% 0.00in /  0mm 0 W/m2
23:00 31.1 °F /  -0.5 °C 30.9 °F /  -0.6 °C 30.17in /  1021.6hPa West 1mph /  1.6km/h 3mph /  4.8km/h 99% 0.00in /  0mm 0 W/m2
23:10 31.2 °F /  -0.4 °C 30.9 °F /  -0.6 °C 30.17in /  1021.6hPa WNW 2mph /  3.2km/h 4mph /  6.4km/h 99% 0.00in /  0mm 0 W/m2
23:20 31.4 °F /  -0.3 °C 31.1 °F /  -0.5 °C 30.16in /  1021.2hPa West 2mph /  3.2km/h 4mph /  6.4km/h 99% 0.00in /  0mm 0 W/m2
23:30 31.3 °F /  -0.4 °C 31 °F /  -0.6 °C 30.17in /  1021.6hPa West 3mph /  4.8km/h 5mph /  8km/h 99% 0.00in /  0mm 0 W/m2
23:40 31.4 °F /  -0.3 °C 31.1 °F /  -0.5 °C 30.16in /  1021.2hPa WNW 2mph /  3.2km/h 5mph /  8km/h 99% 0.00in /  0mm 0 W/m2
23:50 31.5 °F /  -0.3 °C 31.2 °F /  -0.4 °C 30.16in /  1021.2hPa West 1mph /  1.6km/h 3mph /  4.8km/h 99% 0.00in /  0mm 0 W/m2
Knjazevac, Serbia
Compliments of Weather Underground - 2 mb